Terminal Aerodrome Forecast
Issued by NWS Paducah, KY

Home | Current Version | Previous Version | Graphics & Text | Print | Product List | Glossary On
Versions: 1 2 3 4 5 6 7 8 9 10 11 12 13 14 15 16 17 18 19 20
647
FTUS43 KPAH 121720
TAFEVV
TAF
KEVV 121720Z 1218/1318 31010KT P6SM SCT015 OVC035
      TEMPO 1218/1221 BKN015
     FM122100 31012G19KT P6SM BKN015
     FM130300 32010KT P6SM SCT015
     FM131500 35008KT P6SM SKC=

USA.gov is the U.S. government's official web portal to all federal, state and local government web resources and services.